Saughall, United Kingdom

1:38 PM GMT on February 26, 2017 (GMT +0000)
Muirkirk | | Change Station

Elev 738 ft 55.53 °N, 4.06 °W | Updated 1 minute ago

Rain
Rain
48.2 °F
Feels Like 48 °F
N
2.2
Wind Variable Wind from NW
Gusts 4.5 mph

Today
High -- | Low -- °F
--% Chance of Precip.
Yesterday
High -- | Low -- °F
Precip. -- in
Pressure 29.09 in
Visibility 3.7 miles
Clouds Mostly Cloudy 1200 ft
Windchill 48 °F
Dew Point 44 °F
Humidity 86%
Rainfall 0.30 in
Snow Depth Not available.
7:14 AM 5:45 PM
Waning Crescent, 0% visible
METAR EGPK 261320Z 20019G29KT 6000 RA BKN012 09/07 Q0985
Pressure 29.09 in
Visibility 3.7 miles
Clouds Mostly Cloudy 1200 ft
Windchill 48 °F
Dew Point 44 °F
Humidity 86%
Rainfall 0.30 in
Snow Depth Not available.
7:14 AM 5:45 PM
Waning Crescent, 0% visible
METAR EGPK 261320Z 20019G29KT 6000 RA BKN012 09/07 Q0985

Get Your Daily Forecast Email!

Thanks for signing up!

Be on the lookout for a verification email in your inbox.

You'll start receiving the daily forecast at 8 AM.

×

10-Day Weather Forecast

×

Almanac

Astronomy

Feb. 26, 2017 Rise Set
Actual Time
Civil Twilight
Nautical Twilight
Astronomical Twilight
Moon
Length of Visible Light
Length of Day
Tomorrow will be .
, % of the Moon is Illuminated

Today's Extremes

Country Highs Country Lows

Community

WunderPhotos

Upload Photos

1,962,540 photos uploaded!

WunderBlog® & News

Nearby

Air Quality

  Air Quality AQ Index Pollutant
Not available.

Snow Depth

Station Depth Elevation

Earthquake Activity

City Distance Mag. Time & Date
Minimum magnitude displayed is 2.5.

Coastal Water Temperatures

Place Temperature

Stations

Nearby Weather Stations

Station Location Temp. Windchill Dew Point Humidity Wind Precip. Elev Updated Type